sensor_id;sensor_type;location;lat;lon;timestamp;pressure;altitude;pressure_sealevel;temperature;humidity
10064;BME280;5071;52.360;13.134;2023-10-31T00:00:24;99074.91;;;11.64;100.00
10064;BME280;5071;52.360;13.134;2023-10-31T00:05:26;99077.28;;;11.50;100.00
10064;BME280;5071;52.360;13.134;2023-10-31T00:10:29;99090.84;;;11.64;100.00
10064;BME280;5071;52.360;13.134;2023-10-31T00:15:32;99076.47;;;11.68;100.00
10064;BME280;5071;52.360;13.134;2023-10-31T00:20:34;99081.34;;;11.79;100.00
10064;BME280;5071;52.360;13.134;2023-10-31T00:25:38;99055.94;;;11.31;100.00
10064;BME280;5071;52.360;13.134;2023-10-31T00:30:40;99060.06;;;11.38;100.00
10064;BME280;5071;52.360;13.134;2023-10-31T00:35:42;99049.38;;;11.60;100.00
10064;BME280;5071;52.360;13.134;2023-10-31T00:40:45;99046.91;;;11.35;100.00
10064;BME280;5071;52.360;13.134;2023-10-31T00:45:48;99048.13;;;11.28;100.00
10064;BME280;5071;52.360;13.134;2023-10-31T00:50:50;99043.28;;;11.58;100.00
10064;BME280;5071;52.360;13.134;2023-10-31T00:55:53;99037.97;;;11.17;100.00
10064;BME280;5071;52.360;13.134;2023-10-31T01:00:55;99029.59;;;11.26;100.00
10064;BME280;5071;52.360;13.134;2023-10-31T01:05:58;99017.63;;;11.16;100.00
10064;BME280;5071;52.360;13.134;2023-10-31T01:11:01;98987.44;;;11.19;100.00
10064;BME280;5071;52.360;13.134;2023-10-31T01:16:04;98971.28;;;11.23;100.00
10064;BME280;5071;52.360;13.134;2023-10-31T01:21:06;99007.78;;;11.59;100.00
10064;BME280;5071;52.360;13.134;2023-10-31T01:26:10;99001.44;;;11.22;100.00
10064;BME280;5071;52.360;13.134;2023-10-31T01:31:12;99015.56;;;11.64;100.00
10064;BME280;5071;52.360;13.134;2023-10-31T01:36:14;99015.03;;;11.35;100.00
10064;BME280;5071;52.360;13.134;2023-10-31T01:41:18;99024.00;;;11.53;100.00
10064;BME280;5071;52.360;13.134;2023-10-31T01:46:20;98989.09;;;11.21;100.00
10064;BME280;5071;52.360;13.134;2023-10-31T01:51:23;98948.19;;;11.05;100.00
10064;BME280;5071;52.360;13.134;2023-10-31T01:56:26;98938.97;;;11.53;100.00
10064;BME280;5071;52.360;13.134;2023-10-31T02:01:29;98943.72;;;11.26;100.00
10064;BME280;5071;52.360;13.134;2023-10-31T02:06:31;98936.28;;;11.34;100.00
10064;BME280;5071;52.360;13.134;2023-10-31T02:11:34;98919.66;;;11.10;100.00
10064;BME280;5071;52.360;13.134;2023-10-31T02:16:36;98896.75;;;11.47;100.00
10064;BME280;5071;52.360;13.134;2023-10-31T02:21:40;98910.25;;;11.61;100.00
10064;BME280;5071;52.360;13.134;2023-10-31T02:26:42;98936.31;;;11.53;100.00
10064;BME280;5071;52.360;13.134;2023-10-31T02:31:44;98942.84;;;11.46;100.00
10064;BME280;5071;52.360;13.134;2023-10-31T02:36:48;98931.91;;;11.33;100.00
10064;BME280;5071;52.360;13.134;2023-10-31T02:41:50;98921.16;;;11.36;100.00
10064;BME280;5071;52.360;13.134;2023-10-31T02:46:52;98910.03;;;11.07;100.00
10064;BME280;5071;52.360;13.134;2023-10-31T02:51:56;98901.22;;;11.26;100.00
10064;BME280;5071;52.360;13.134;2023-10-31T02:56:58;98902.38;;;11.00;100.00
10064;BME280;5071;52.360;13.134;2023-10-31T03:02:00;98896.19;;;11.20;100.00
10064;BME280;5071;52.360;13.134;2023-10-31T03:07:04;98895.25;;;11.02;100.00
10064;BME280;5071;52.360;13.134;2023-10-31T03:12:06;98905.91;;;11.00;100.00
10064;BME280;5071;52.360;13.134;2023-10-31T03:17:09;98896.94;;;11.03;100.00
10064;BME280;5071;52.360;13.134;2023-10-31T03:22:12;98890.75;;;11.23;100.00
10064;BME280;5071;52.360;13.134;2023-10-31T03:27:15;98898.00;;;11.19;100.00
10064;BME280;5071;52.360;13.134;2023-10-31T03:32:17;98899.13;;;11.14;100.00
10064;BME280;5071;52.360;13.134;2023-10-31T03:37:20;98910.47;;;11.38;100.00
10064;BME280;5071;52.360;13.134;2023-10-31T03:42:23;98907.22;;;11.50;100.00
10064;BME280;5071;52.360;13.134;2023-10-31T03:47:25;98904.34;;;11.36;100.00
10064;BME280;5071;52.360;13.134;2023-10-31T03:52:28;98904.00;;;11.43;100.00
10064;BME280;5071;52.360;13.134;2023-10-31T03:57:31;98910.84;;;11.49;100.00
10064;BME280;5071;52.360;13.134;2023-10-31T04:02:33;98916.69;;;11.37;100.00
10064;BME280;5071;52.360;13.134;2023-10-31T04:07:37;98916.78;;;11.54;100.00
10064;BME280;5071;52.360;13.134;2023-10-31T04:12:39;98910.97;;;11.46;100.00
10064;BME280;5071;52.360;13.134;2023-10-31T04:17:41;98912.66;;;11.67;100.00
10064;BME280;5071;52.360;13.134;2023-10-31T04:22:45;98908.13;;;11.51;100.00
10064;BME280;5071;52.360;13.134;2023-10-31T04:27:47;98907.53;;;11.63;100.00
10064;BME280;5071;52.360;13.134;2023-10-31T04:32:49;98888.91;;;11.82;100.00
10064;BME280;5071;52.360;13.134;2023-10-31T04:37:52;98883.97;;;11.74;100.00
10064;BME280;5071;52.360;13.134;2023-10-31T04:42:55;98890.31;;;11.91;100.00
10064;BME280;5071;52.360;13.134;2023-10-31T04:47:57;98888.84;;;11.83;100.00
10064;BME280;5071;52.360;13.134;2023-10-31T04:53:00;98893.31;;;11.83;100.00
10064;BME280;5071;52.360;13.134;2023-10-31T04:58:03;98883.13;;;11.74;100.00
10064;BME280;5071;52.360;13.134;2023-10-31T05:03:05;98889.88;;;12.00;100.00
10064;BME280;5071;52.360;13.134;2023-10-31T05:08:08;98899.06;;;12.12;100.00
10064;BME280;5071;52.360;13.134;2023-10-31T05:13:10;98892.19;;;12.08;100.00
10064;BME280;5071;52.360;13.134;2023-10-31T05:18:13;98893.25;;;12.03;100.00
10064;BME280;5071;52.360;13.134;2023-10-31T05:23:17;98889.03;;;11.99;100.00
10064;BME280;5071;52.360;13.134;2023-10-31T05:28:19;98879.81;;;12.06;100.00
10064;BME280;5071;52.360;13.134;2023-10-31T05:33:23;98876.72;;;11.97;100.00
10064;BME280;5071;52.360;13.134;2023-10-31T05:38:27;98879.97;;;12.03;100.00
10064;BME280;5071;52.360;13.134;2023-10-31T05:43:29;98894.34;;;11.99;100.00
10064;BME280;5071;52.360;13.134;2023-10-31T05:48:31;98893.09;;;12.06;100.00
10064;BME280;5071;52.360;13.134;2023-10-31T05:53:34;98894.34;;;11.99;100.00
10064;BME280;5071;52.360;13.134;2023-10-31T05:58:37;98895.03;;;12.03;100.00
10064;BME280;5071;52.360;13.134;2023-10-31T06:03:41;98904.44;;;12.10;100.00
10064;BME280;5071;52.360;13.134;2023-10-31T06:08:45;98905.94;;;12.16;100.00
10064;BME280;5071;52.360;13.134;2023-10-31T06:13:47;98910.34;;;12.17;100.00
10064;BME280;5071;52.360;13.134;2023-10-31T06:18:49;98911.69;;;12.25;100.00
10064;BME280;5071;52.360;13.134;2023-10-31T06:23:53;98916.88;;;12.29;100.00
10064;BME280;5071;52.360;13.134;2023-10-31T06:28:55;98929.97;;;12.33;100.00
10064;BME280;5071;52.360;13.134;2023-10-31T06:34:17;98928.78;;;12.39;100.00
10064;BME280;5071;52.360;13.134;2023-10-31T06:39:21;98934.81;;;12.42;100.00
10064;BME280;5071;52.360;13.134;2023-10-31T06:44:23;98936.41;;;12.47;100.00
10064;BME280;5071;52.360;13.134;2023-10-31T06:49:25;98936.09;;;12.53;100.00
10064;BME280;5071;52.360;13.134;2023-10-31T06:54:28;98953.16;;;12.66;100.00
10064;BME280;5071;52.360;13.134;2023-10-31T06:59:31;98972.25;;;12.57;100.00
10064;BME280;5071;52.360;13.134;2023-10-31T07:04:33;98975.75;;;12.57;100.00
10064;BME280;5071;52.360;13.134;2023-10-31T07:09:37;98994.50;;;12.56;100.00
10064;BME280;5071;52.360;13.134;2023-10-31T07:14:39;98996.66;;;12.48;100.00
10064;BME280;5071;52.360;13.134;2023-10-31T07:19:41;99012.63;;;12.48;100.00
10064;BME280;5071;52.360;13.134;2023-10-31T07:24:45;99027.00;;;12.43;100.00
10064;BME280;5071;52.360;13.134;2023-10-31T07:29:47;99041.25;;;12.23;100.00
10064;BME280;5071;52.360;13.134;2023-10-31T07:34:49;99037.78;;;12.21;100.00
10064;BME280;5071;52.360;13.134;2023-10-31T07:39:53;99050.25;;;12.21;100.00
10064;BME280;5071;52.360;13.134;2023-10-31T07:44:55;99061.97;;;12.17;100.00
10064;BME280;5071;52.360;13.134;2023-10-31T07:49:57;99060.69;;;12.44;100.00
10064;BME280;5071;52.360;13.134;2023-10-31T07:55:00;99067.59;;;12.49;100.00
10064;BME280;5071;52.360;13.134;2023-10-31T08:00:03;99074.91;;;12.43;100.00
10064;BME280;5071;52.360;13.134;2023-10-31T08:05:11;99077.06;;;12.35;100.00
10064;BME280;5071;52.360;13.134;2023-10-31T08:10:18;99085.25;;;12.50;100.00
10064;BME280;5071;52.360;13.134;2023-10-31T08:15:22;99089.91;;;12.06;100.00
10064;BME280;5071;52.360;13.134;2023-10-31T08:20:24;99100.50;;;12.46;98.39
10064;BME280;5071;52.360;13.134;2023-10-31T08:25:28;99115.97;;;12.57;96.61
10064;BME280;5071;52.360;13.134;2023-10-31T08:30:30;99132.31;;;12.68;92.49
10064;BME280;5071;52.360;13.134;2023-10-31T08:35:32;99138.84;;;12.61;90.43
10064;BME280;5071;52.360;13.134;2023-10-31T08:40:36;99153.41;;;12.92;89.10
10064;BME280;5071;52.360;13.134;2023-10-31T08:45:38;99155.78;;;12.79;91.66
10064;BME280;5071;52.360;13.134;2023-10-31T08:50:40;99161.09;;;12.79;91.00
10064;BME280;5071;52.360;13.134;2023-10-31T08:55:44;99144.63;;;12.90;88.95
10064;BME280;5071;52.360;13.134;2023-10-31T09:00:46;99154.63;;;12.84;89.15
10064;BME280;5071;52.360;13.134;2023-10-31T09:05:49;99163.53;;;12.83;88.30
10064;BME280;5071;52.360;13.134;2023-10-31T09:10:52;99164.69;;;12.59;88.73
10064;BME280;5071;52.360;13.134;2023-10-31T09:15:55;99165.88;;;12.52;89.49
10064;BME280;5071;52.360;13.134;2023-10-31T09:20:57;99180.47;;;12.82;87.80
10064;BME280;5071;52.360;13.134;2023-10-31T09:26:00;99188.22;;;13.44;85.13
10064;BME280;5071;52.360;13.134;2023-10-31T09:31:03;99183.66;;;13.08;84.75
10064;BME280;5071;52.360;13.134;2023-10-31T09:36:06;99189.44;;;13.18;85.78
10064;BME280;5071;52.360;13.134;2023-10-31T09:41:12;99197.66;;;13.32;86.39
10064;BME280;5071;52.360;13.134;2023-10-31T09:46:14;99209.25;;;13.31;84.57
10064;BME280;5071;52.360;13.134;2023-10-31T09:51:17;99225.00;;;12.98;85.40
10064;BME280;5071;52.360;13.134;2023-10-31T09:56:21;99215.81;;;13.05;86.13
10064;BME280;5071;52.360;13.134;2023-10-31T10:01:23;99234.94;;;13.13;85.59
10064;BME280;5071;52.360;13.134;2023-10-31T10:06:26;99237.72;;;13.31;84.44
10064;BME280;5071;52.360;13.134;2023-10-31T10:11:29;99244.06;;;13.27;80.72
10064;BME280;5071;52.360;13.134;2023-10-31T10:16:33;99244.00;;;13.28;81.46
10064;BME280;5071;52.360;13.134;2023-10-31T10:21:46;99228.69;;;13.14;82.01
10064;BME280;5071;52.360;13.134;2023-10-31T10:26:51;99235.09;;;13.29;80.13
10064;BME280;5071;52.360;13.134;2023-10-31T10:31:53;99234.16;;;13.49;79.61
10064;BME280;5071;52.360;13.134;2023-10-31T10:36:57;99235.47;;;13.40;81.34
10064;BME280;5071;52.360;13.134;2023-10-31T10:42:01;99234.38;;;13.26;80.76
10064;BME280;5071;52.360;13.134;2023-10-31T10:47:06;99222.91;;;13.79;79.61
10064;BME280;5071;52.360;13.134;2023-10-31T10:52:16;99221.28;;;14.29;78.38
10064;BME280;5071;52.360;13.134;2023-10-31T10:57:31;99233.38;;;14.87;74.46
10064;BME280;5071;52.360;13.134;2023-10-31T11:02:34;99210.03;;;14.57;73.36
10064;BME280;5071;52.360;13.134;2023-10-31T11:07:38;99211.59;;;14.44;75.84
10064;BME280;5071;52.360;13.134;2023-10-31T11:12:43;99207.84;;;14.30;74.99
10064;BME280;5071;52.360;13.134;2023-10-31T11:17:46;99211.47;;;13.94;76.62
10064;BME280;5071;52.360;13.134;2023-10-31T11:22:54;99222.75;;;13.99;78.75
10064;BME280;5071;52.360;13.134;2023-10-31T11:28:11;99228.16;;;13.63;78.19
10064;BME280;5071;52.360;13.134;2023-10-31T11:33:14;99229.06;;;13.62;79.02
10064;BME280;5071;52.360;13.134;2023-10-31T11:38:28;99250.25;;;13.48;80.33
10064;BME280;5071;52.360;13.134;2023-10-31T11:48:54;99275.56;;;13.18;82.80
10064;BME280;5071;52.360;13.134;2023-10-31T11:53:57;99290.94;;;13.12;84.47
10064;BME280;5071;52.360;13.134;2023-10-31T11:59:04;99294.63;;;13.28;84.79
10064;BME280;5071;52.360;13.134;2023-10-31T12:04:06;99297.63;;;13.41;83.78
10064;BME280;5071;52.360;13.134;2023-10-31T12:09:09;99306.53;;;13.40;82.79
10064;BME280;5071;52.360;13.134;2023-10-31T12:14:18;99314.66;;;13.18;83.24
10064;BME280;5071;52.360;13.134;2023-10-31T12:19:20;99315.22;;;13.25;82.17
10064;BME280;5071;52.360;13.134;2023-10-31T12:24:23;99311.72;;;13.24;81.37
10064;BME280;5071;52.360;13.134;2023-10-31T12:29:26;99321.19;;;13.31;82.78
10064;BME280;5071;52.360;13.134;2023-10-31T12:34:29;99325.88;;;13.25;81.14
10064;BME280;5071;52.360;13.134;2023-10-31T12:39:31;99331.56;;;13.17;80.07
10064;BME280;5071;52.360;13.134;2023-10-31T12:44:35;99328.13;;;13.15;77.80
10064;BME280;5071;52.360;13.134;2023-10-31T12:49:37;99338.81;;;13.34;77.37
10064;BME280;5071;52.360;13.134;2023-10-31T12:54:40;99353.09;;;13.33;78.52
10064;BME280;5071;52.360;13.134;2023-10-31T12:59:44;99354.81;;;13.34;78.49
10064;BME280;5071;52.360;13.134;2023-10-31T13:04:46;99364.41;;;13.38;79.28
10064;BME280;5071;52.360;13.134;2023-10-31T13:09:48;99368.94;;;13.36;79.00
10064;BME280;5071;52.360;13.134;2023-10-31T13:14:52;99383.72;;;13.22;80.36
10064;BME280;5071;52.360;13.134;2023-10-31T13:19:54;99402.28;;;12.84;82.32
10064;BME280;5071;52.360;13.134;2023-10-31T13:24:56;99414.56;;;12.87;82.03
10064;BME280;5071;52.360;13.134;2023-10-31T13:30:00;99415.19;;;12.94;82.19
10064;BME280;5071;52.360;13.134;2023-10-31T13:35:02;99409.13;;;12.90;82.23
10064;BME280;5071;52.360;13.134;2023-10-31T13:40:06;99403.75;;;12.92;81.90
10064;BME280;5071;52.360;13.134;2023-10-31T13:45:10;99408.28;;;12.90;81.99
10064;BME280;5071;52.360;13.134;2023-10-31T13:50:12;99401.31;;;12.86;82.27
10064;BME280;5071;52.360;13.134;2023-10-31T13:55:14;99411.50;;;12.76;83.98
10064;BME280;5071;52.360;13.134;2023-10-31T14:00:18;99433.81;;;12.73;84.00
10064;BME280;5071;52.360;13.134;2023-10-31T14:05:20;99445.66;;;12.66;83.82
10064;BME280;5071;52.360;13.134;2023-10-31T14:10:23;99443.19;;;12.61;85.02
10064;BME280;5071;52.360;13.134;2023-10-31T14:15:27;99464.66;;;12.57;85.03
10064;BME280;5071;52.360;13.134;2023-10-31T14:20:29;99473.28;;;12.41;86.69
10064;BME280;5071;52.360;13.134;2023-10-31T14:25:31;99499.91;;;12.41;89.57
10064;BME280;5071;52.360;13.134;2023-10-31T14:30:35;99498.97;;;12.20;93.54
10064;BME280;5071;52.360;13.134;2023-10-31T14:35:38;99504.47;;;11.92;97.17
10064;BME280;5071;52.360;13.134;2023-10-31T14:40:40;99522.69;;;11.78;100.00
10064;BME280;5071;52.360;13.134;2023-10-31T14:45:44;99536.69;;;11.58;100.00
10064;BME280;5071;52.360;13.134;2023-10-31T14:50:46;99553.38;;;11.38;100.00
10064;BME280;5071;52.360;13.134;2023-10-31T14:55:49;99575.66;;;11.34;100.00
10064;BME280;5071;52.360;13.134;2023-10-31T15:00:53;99581.19;;;11.26;100.00
10064;BME280;5071;52.360;13.134;2023-10-31T15:05:55;99590.25;;;11.20;100.00
10064;BME280;5071;52.360;13.134;2023-10-31T15:10:57;99593.06;;;11.16;100.00
10064;BME280;5071;52.360;13.134;2023-10-31T15:16:01;99596.75;;;11.12;100.00
10064;BME280;5071;52.360;13.134;2023-10-31T15:21:03;99603.22;;;11.03;100.00
10064;BME280;5071;52.360;13.134;2023-10-31T15:26:06;99605.81;;;11.04;100.00
10064;BME280;5071;52.360;13.134;2023-10-31T15:31:10;99608.81;;;10.94;100.00
10064;BME280;5071;52.360;13.134;2023-10-31T15:36:12;99615.78;;;10.98;100.00
10064;BME280;5071;52.360;13.134;2023-10-31T15:41:15;99607.50;;;11.07;100.00
10064;BME280;5071;52.360;13.134;2023-10-31T15:46:20;99613.09;;;10.98;100.00
10064;BME280;5071;52.360;13.134;2023-10-31T15:51:22;99614.88;;;10.99;100.00
10064;BME280;5071;52.360;13.134;2023-10-31T15:56:24;99629.00;;;10.99;100.00
10064;BME280;5071;52.360;13.134;2023-10-31T16:01:28;99624.38;;;11.06;100.00
10064;BME280;5071;52.360;13.134;2023-10-31T16:06:30;99638.59;;;11.03;100.00
10064;BME280;5071;52.360;13.134;2023-10-31T16:11:32;99645.94;;;10.95;100.00
10064;BME280;5071;52.360;13.134;2023-10-31T16:16:36;99651.22;;;10.97;100.00
10064;BME280;5071;52.360;13.134;2023-10-31T16:21:39;99649.66;;;10.89;100.00
10064;BME280;5071;52.360;13.134;2023-10-31T16:26:41;99666.50;;;10.88;100.00
10064;BME280;5071;52.360;13.134;2023-10-31T16:31:45;99671.22;;;10.79;100.00
10064;BME280;5071;52.360;13.134;2023-10-31T16:36:47;99686.13;;;10.83;100.00
10064;BME280;5071;52.360;13.134;2023-10-31T16:41:50;99690.69;;;10.79;100.00
10064;BME280;5071;52.360;13.134;2023-10-31T16:46:53;99695.38;;;10.69;100.00
10064;BME280;5071;52.360;13.134;2023-10-31T16:51:57;99694.44;;;10.72;100.00
10064;BME280;5071;52.360;13.134;2023-10-31T16:56:59;99705.22;;;10.36;100.00
10064;BME280;5071;52.360;13.134;2023-10-31T17:02:03;99695.81;;;10.23;100.00
10064;BME280;5071;52.360;13.134;2023-10-31T17:07:05;99701.28;;;10.17;100.00
10064;BME280;5071;52.360;13.134;2023-10-31T17:12:08;99712.63;;;10.23;100.00
10064;BME280;5071;52.360;13.134;2023-10-31T17:17:11;99712.44;;;10.29;100.00
10064;BME280;5071;52.360;13.134;2023-10-31T17:22:13;99720.38;;;10.31;100.00
10064;BME280;5071;52.360;13.134;2023-10-31T17:27:15;99736.34;;;10.28;100.00
10064;BME280;5071;52.360;13.134;2023-10-31T17:32:19;99749.97;;;10.48;100.00
10064;BME280;5071;52.360;13.134;2023-10-31T17:37:24;99747.34;;;10.78;100.00
10064;BME280;5071;52.360;13.134;2023-10-31T17:42:26;99738.88;;;10.65;100.00
10064;BME280;5071;52.360;13.134;2023-10-31T17:47:30;99762.09;;;10.57;100.00
10064;BME280;5071;52.360;13.134;2023-10-31T17:52:32;99771.88;;;10.57;100.00
10064;BME280;5071;52.360;13.134;2023-10-31T17:57:34;99774.59;;;10.85;100.00
10064;BME280;5071;52.360;13.134;2023-10-31T18:02:38;99790.38;;;10.89;100.00
10064;BME280;5071;52.360;13.134;2023-10-31T18:07:40;99795.31;;;10.72;100.00
10064;BME280;5071;52.360;13.134;2023-10-31T18:12:43;99799.03;;;10.65;100.00
10064;BME280;5071;52.360;13.134;2023-10-31T18:17:46;99810.78;;;10.56;100.00
10064;BME280;5071;52.360;13.134;2023-10-31T18:22:49;99828.63;;;10.82;100.00
10064;BME280;5071;52.360;13.134;2023-10-31T18:27:51;99822.00;;;10.66;100.00
10064;BME280;5071;52.360;13.134;2023-10-31T18:32:55;99834.25;;;11.03;100.00
10064;BME280;5071;52.360;13.134;2023-10-31T18:37:57;99836.03;;;11.02;100.00
10064;BME280;5071;52.360;13.134;2023-10-31T18:42:59;99848.13;;;11.13;99.66
10064;BME280;5071;52.360;13.134;2023-10-31T18:48:02;99866.38;;;10.94;100.00
10064;BME280;5071;52.360;13.134;2023-10-31T18:53:04;99888.19;;;11.05;99.84
10064;BME280;5071;52.360;13.134;2023-10-31T18:58:07;99891.22;;;10.91;100.00
10064;BME280;5071;52.360;13.134;2023-10-31T19:03:10;99894.97;;;10.84;100.00
10064;BME280;5071;52.360;13.134;2023-10-31T19:08:13;99920.19;;;11.00;100.00
10064;BME280;5071;52.360;13.134;2023-10-31T19:13:15;99920.72;;;11.13;99.91
10064;BME280;5071;52.360;13.134;2023-10-31T19:18:19;99939.50;;;11.05;99.54
10064;BME280;5071;52.360;13.134;2023-10-31T19:23:21;99954.78;;;10.97;97.58
10064;BME280;5071;52.360;13.134;2023-10-31T19:28:23;99960.53;;;10.80;92.32
10064;BME280;5071;52.360;13.134;2023-10-31T19:33:27;99964.28;;;10.72;89.21
10064;BME280;5071;52.360;13.134;2023-10-31T19:38:29;99976.31;;;10.50;89.36
10064;BME280;5071;52.360;13.134;2023-10-31T19:43:32;99978.53;;;10.30;87.62
10064;BME280;5071;52.360;13.134;2023-10-31T19:48:35;99989.34;;;10.22;86.74
10064;BME280;5071;52.360;13.134;2023-10-31T19:53:37;99995.38;;;9.88;86.14
10064;BME280;5071;52.360;13.134;2023-10-31T19:58:40;99999.00;;;9.86;87.80
10064;BME280;5071;52.360;13.134;2023-10-31T20:03:43;100010.03;;;9.64;86.81
10064;BME280;5071;52.360;13.134;2023-10-31T20:08:46;100018.97;;;9.59;85.65
10064;BME280;5071;52.360;13.134;2023-10-31T20:13:48;100041.19;;;9.51;88.06
10064;BME280;5071;52.360;13.134;2023-10-31T20:18:52;100040.94;;;9.65;87.80
10064;BME280;5071;52.360;13.134;2023-10-31T20:23:54;100035.16;;;9.45;89.21
10064;BME280;5071;52.360;13.134;2023-10-31T20:28:56;100053.91;;;9.32;90.17
10064;BME280;5071;52.360;13.134;2023-10-31T20:34:00;100050.63;;;9.20;90.57
10064;BME280;5071;52.360;13.134;2023-10-31T20:39:02;100060.63;;;9.02;92.46
10064;BME280;5071;52.360;13.134;2023-10-31T20:44:05;100069.53;;;8.97;89.03
10064;BME280;5071;52.360;13.134;2023-10-31T20:49:08;100066.84;;;9.01;87.92
10064;BME280;5071;52.360;13.134;2023-10-31T20:54:10;100065.34;;;8.85;87.95
10064;BME280;5071;52.360;13.134;2023-10-31T20:59:13;100071.56;;;8.81;84.90
10064;BME280;5071;52.360;13.134;2023-10-31T21:04:18;100066.47;;;8.67;84.20
10064;BME280;5071;52.360;13.134;2023-10-31T21:09:20;100085.31;;;8.47;82.40
10064;BME280;5071;52.360;13.134;2023-10-31T21:14:23;100086.25;;;8.41;80.72
10064;BME280;5071;52.360;13.134;2023-10-31T21:19:26;100097.09;;;8.20;83.16
10064;BME280;5071;52.360;13.134;2023-10-31T21:24:37;100095.38;;;8.18;83.57
10064;BME280;5071;52.360;13.134;2023-10-31T21:29:39;100106.16;;;8.00;85.16
10064;BME280;5071;52.360;13.134;2023-10-31T21:34:43;100124.84;;;7.83;87.15
10064;BME280;5071;52.360;13.134;2023-10-31T21:39:45;100112.84;;;7.53;90.21
10064;BME280;5071;52.360;13.134;2023-10-31T21:44:48;100126.69;;;7.76;89.47
10064;BME280;5071;52.360;13.134;2023-10-31T21:49:51;100127.44;;;7.88;89.74
10064;BME280;5071;52.360;13.134;2023-10-31T21:54:53;100122.44;;;7.60;91.99
10064;BME280;5071;52.360;13.134;2023-10-31T21:59:56;100144.31;;;7.74;91.46
10064;BME280;5071;52.360;13.134;2023-10-31T22:04:59;100142.31;;;8.00;92.24
10064;BME280;5071;52.360;13.134;2023-10-31T22:10:01;100159.78;;;8.11;91.36
10064;BME280;5071;52.360;13.134;2023-10-31T22:15:04;100156.47;;;7.92;92.53
10064;BME280;5071;52.360;13.134;2023-10-31T22:20:10;100152.69;;;8.15;90.67
10064;BME280;5071;52.360;13.134;2023-10-31T22:25:12;100169.28;;;8.28;88.45
10064;BME280;5071;52.360;13.134;2023-10-31T22:30:15;100172.69;;;8.37;87.78
10064;BME280;5071;52.360;13.134;2023-10-31T22:35:19;100167.59;;;8.21;88.99
10064;BME280;5071;52.360;13.134;2023-10-31T22:40:21;100180.63;;;8.34;88.41
10064;BME280;5071;52.360;13.134;2023-10-31T22:45:23;100183.38;;;8.27;89.16
10064;BME280;5071;52.360;13.134;2023-10-31T22:50:27;100200.91;;;8.35;89.57
10064;BME280;5071;52.360;13.134;2023-10-31T22:55:29;100209.84;;;8.24;89.46
10064;BME280;5071;52.360;13.134;2023-10-31T23:00:31;100206.50;;;8.09;91.34
10064;BME280;5071;52.360;13.134;2023-10-31T23:05:34;100214.44;;;8.09;90.14
10064;BME280;5071;52.360;13.134;2023-10-31T23:10:37;100217.81;;;8.22;89.28
10064;BME280;5071;52.360;13.134;2023-10-31T23:15:39;100203.66;;;8.26;88.95
10064;BME280;5071;52.360;13.134;2023-10-31T23:20:42;100206.50;;;8.11;89.55
10064;BME280;5071;52.360;13.134;2023-10-31T23:25:45;100203.88;;;8.05;90.12
10064;BME280;5071;52.360;13.134;2023-10-31T23:30:47;100210.69;;;8.26;89.37
10064;BME280;5071;52.360;13.134;2023-10-31T23:36:01;100218.44;;;8.47;87.69
10064;BME280;5071;52.360;13.134;2023-10-31T23:41:03;100220.41;;;8.27;87.88
10064;BME280;5071;52.360;13.134;2023-10-31T23:46:05;100227.38;;;8.34;83.84
10064;BME280;5071;52.360;13.134;2023-10-31T23:51:09;100223.03;;;8.27;82.71
10064;BME280;5071;52.360;13.134;2023-10-31T23:56:12;100233.88;;;8.05;84.15
